Billings Logan International Airport
KBIL : now visible

Airfield :











YOU CAN JOIN US ON...

 
LOGIN :

Register | Disclaimer

   EN    FR    IT 

 









Legend :    VFR   Marginal VFR   IFR   Intensive IFR   Very Intensive IFR
Visi :
Ceiling :
>= 8 km
>= 3000ft
5 to 8 km
1000 to 3000 ft
1500m to 5 km
500 to 1000 ft
800 to 1500m
200 to 500 ft
< 800m
< 200 ft
Symbols :   Thunderstorms  Fog  Heavy snow  Heavy precipitations  Wind > 20 kt






- Airport Elevation : 3652 ft
- IATA code : BIL


KBIL - Billings Logan International

CURRENT METAR :
  • 100353Z 06005KT 10SM BKN036 06/03 A3019 RMK AO2 SLP233 T00610028

EXPIRED METARs :
  • 100253Z 09003KT 10SM BKN034 BKN043 OVC055 06/03 A3016 RMK AO2 RAE50 SLP225 P0002 60002 T00610028 51015
  • 100153Z 00000KT 10SM -RA FEW030 BKN050CB BKN080 07/02 A3015 RMK AO2 RAB42 SLP220 CB OHD MOV E-SE CB DSNT SE SW P0000 T00670022

TAF KBIL
Valid from the 10 at 00:00 until the 11 at 00:00 UTC


092336Z 1000/1024 04010KT P6SM VCSH SCT025 BKN050 BKN100
FM100200 02006KT P6SM VCSH SCT020 BKN035
FM100800 VRB05KT P6SM VCFG FEW002 BKN030
FM101100 VRB05KT P6SM VCFG SCT002 BKN022
FM101600 05008KT P6SM SCT015 BKN035
KZLC FIR / North America



MET'MAP, your aeronautical weather chart ! - Copyright ORBIFLY December 2007 - Disclaimer

ORBIFLY MET'MAP TEAM :

Programming & Development : Alexandra Zaïnal
Concept & original design : Baudouin d'Aumeries
Assistance for programming : Marc-Olivier Méhu
Technical & hardware support : Manuel Goepfert

Contact : metmap@orbifly.com




SOURCES & CREDITS :

   NOAA       Earth
Advisory